createdAt,value
2023-05-17T00:01:47.524Z,43.73
2023-05-17T00:04:14.207Z,43.84
2023-05-17T00:06:41.188Z,44.04
2023-05-17T00:09:07.928Z,43.99
2023-05-17T00:11:34.823Z,44.28
2023-05-17T00:14:01.416Z,44.03
2023-05-17T00:16:28.007Z,44.24
2023-05-17T00:18:54.688Z,44.51
2023-05-17T00:21:21.572Z,44.56
2023-05-17T00:23:48.173Z,44.17
2023-05-17T00:26:14.830Z,44.37
2023-05-17T00:28:42.180Z,44.46
2023-05-17T00:31:08.747Z,43.95
2023-05-17T00:33:35.472Z,44.57
2023-05-17T00:36:02.063Z,44.66
2023-05-17T00:38:28.682Z,44.67
2023-05-17T00:40:55.370Z,44.52
2023-05-17T00:43:22.016Z,44.42
2023-05-17T00:45:50.157Z,44.14
2023-05-17T00:48:17.128Z,44.09
2023-05-17T00:50:44.334Z,44.31
2023-05-17T00:53:16.087Z,44.00
2023-05-17T00:55:44.160Z,43.97
2023-05-17T00:58:14.870Z,43.91
2023-05-17T01:00:42.041Z,43.53
2023-05-17T01:03:08.972Z,43.71
2023-05-17T01:05:36.207Z,43.05
2023-05-17T01:08:02.910Z,43.43
2023-05-17T01:11:01.515Z,43.34
2023-05-17T01:13:38.207Z,43.59
2023-05-17T01:16:16.492Z,43.99
2023-05-17T01:18:55.079Z,44.06
2023-05-17T01:21:40.289Z,44.28
2023-05-17T01:24:24.722Z,44.12
2023-05-17T01:26:54.022Z,43.96
2023-05-17T01:29:26.579Z,44.36
2023-05-17T01:31:56.917Z,43.85
2023-05-17T01:34:27.956Z,44.34
2023-05-17T01:36:54.786Z,44.44
2023-05-17T01:39:22.543Z,44.47
2023-05-17T01:42:07.880Z,44.60
2023-05-17T01:44:46.479Z,44.82
2023-05-17T01:47:19.714Z,44.37
2023-05-17T01:49:48.730Z,44.67
2023-05-17T01:52:29.817Z,44.29
2023-05-17T01:55:07.567Z,44.10
2023-05-17T01:57:38.993Z,44.69
2023-05-17T02:00:09.156Z,44.09
2023-05-17T02:02:41.685Z,44.59
2023-05-17T02:05:08.527Z,44.97
2023-05-17T02:07:35.360Z,44.35
2023-05-17T02:10:02.293Z,43.18
2023-05-17T02:12:28.885Z,43.29
2023-05-17T02:14:55.828Z,44.40
2023-05-17T02:17:22.850Z,44.26
2023-05-17T02:19:49.546Z,44.50
2023-05-17T02:22:16.184Z,44.35
2023-05-17T02:24:42.736Z,43.99
2023-05-17T02:27:09.480Z,44.74
2023-05-17T02:29:36.112Z,44.54
2023-05-17T02:32:02.801Z,44.56
2023-05-17T02:34:29.430Z,44.56
2023-05-17T02:36:56.048Z,44.58
2023-05-17T02:39:22.570Z,44.16
2023-05-17T02:41:49.197Z,44.56
2023-05-17T02:44:16.613Z,44.34
2023-05-17T02:46:43.260Z,44.06
2023-05-17T02:49:12.704Z,44.60
2023-05-17T02:51:39.355Z,44.45
2023-05-17T02:54:05.966Z,44.53
2023-05-17T02:56:32.958Z,44.30
2023-05-17T02:59:01.309Z,44.77
2023-05-17T03:01:28.364Z,44.95
2023-05-17T03:03:56.071Z,45.20
2023-05-17T03:06:22.882Z,44.94
2023-05-17T03:08:50.854Z,45.47
2023-05-17T03:11:17.463Z,45.21
2023-05-17T03:13:46.301Z,45.47
2023-05-17T03:16:13.038Z,45.54
2023-05-17T03:18:39.756Z,46.24
2023-05-17T03:21:07.163Z,46.21
2023-05-17T03:23:33.853Z,46.54
2023-05-17T03:26:02.537Z,46.31
2023-05-17T03:28:33.478Z,46.56
2023-05-17T03:31:00.624Z,46.35
2023-05-17T03:33:30.660Z,46.50
2023-05-17T03:35:57.522Z,46.24
2023-05-17T03:38:24.222Z,46.88
2023-05-17T03:40:52.051Z,46.89
2023-05-17T03:43:18.798Z,47.44
2023-05-17T03:45:46.415Z,47.43
2023-05-17T03:48:12.984Z,47.45
2023-05-17T03:50:41.012Z,47.20
2023-05-17T03:53:09.670Z,47.71
2023-05-17T03:55:36.406Z,47.90
2023-05-17T03:58:03.095Z,47.90
2023-05-17T04:00:29.886Z,48.32
2023-05-17T04:03:01.288Z,47.78
2023-05-17T04:05:28.132Z,47.66
2023-05-17T04:07:55.320Z,47.42
2023-05-17T04:10:22.509Z,47.35
2023-05-17T04:12:49.815Z,47.47
2023-05-17T04:15:16.498Z,47.75
2023-05-17T04:17:43.745Z,47.58
2023-05-17T04:20:11.120Z,47.67
2023-05-17T04:22:39.133Z,47.82
2023-05-17T04:25:06.500Z,47.64
2023-05-17T04:27:33.442Z,47.78
2023-05-17T04:30:00.519Z,47.47
2023-05-17T04:32:27.911Z,48.01
2023-05-17T04:34:56.199Z,48.54
2023-05-17T04:37:23.473Z,47.84
2023-05-17T04:39:53.890Z,47.96
2023-05-17T04:42:21.349Z,47.97
2023-05-17T04:44:53.434Z,48.38
2023-05-17T04:47:20.007Z,48.64
2023-05-17T04:49:46.591Z,48.58
2023-05-17T04:52:13.153Z,48.15
2023-05-17T04:54:40.576Z,48.27
2023-05-17T04:57:07.129Z,48.59
2023-05-17T05:00:07.261Z,48.46
2023-05-17T05:02:34.872Z,48.48
2023-05-17T05:05:04.805Z,48.37
2023-05-17T05:07:31.817Z,48.48
2023-05-17T05:09:58.431Z,48.29
2023-05-17T05:12:25.405Z,48.72
2023-05-17T05:14:51.945Z,47.83
2023-05-17T05:17:18.852Z,48.05
2023-05-17T05:19:46.605Z,47.99
2023-05-17T05:22:13.314Z,47.96
2023-05-17T05:24:41.097Z,48.68
2023-05-17T05:27:07.741Z,48.58
2023-05-17T05:29:35.691Z,48.61
2023-05-17T05:32:02.765Z,48.80
2023-05-17T05:34:31.530Z,48.59
2023-05-17T05:36:58.200Z,48.19
2023-05-17T05:39:24.891Z,47.99
2023-05-17T05:41:51.997Z,47.27
2023-05-17T05:44:19.337Z,47.58
2023-05-17T05:46:46.496Z,47.71
2023-05-17T05:49:13.965Z,48.02
2023-05-17T05:51:40.603Z,47.47
2023-05-17T05:54:07.252Z,46.40
2023-05-17T05:56:33.963Z,46.22
2023-05-17T05:59:00.509Z,45.77
2023-05-17T06:01:28.839Z,44.47
2023-05-17T06:03:55.768Z,44.90
2023-05-17T06:06:22.448Z,44.91
2023-05-17T06:08:49.105Z,44.60
2023-05-17T06:11:15.703Z,44.50
2023-05-17T06:13:42.289Z,44.48
2023-05-17T06:16:08.917Z,44.41
2023-05-17T06:18:35.759Z,44.74
2023-05-17T06:21:02.431Z,45.04
2023-05-17T06:23:28.998Z,44.61
2023-05-17T06:25:55.768Z,44.53
2023-05-17T06:28:22.392Z,44.48
2023-05-17T06:30:49.011Z,43.27
2023-05-17T06:33:15.738Z,43.81
2023-05-17T06:35:54.963Z,43.44
2023-05-17T06:38:23.582Z,43.74
2023-05-17T06:40:54.208Z,43.49
2023-05-17T06:43:21.354Z,43.37
2023-05-17T06:45:47.945Z,43.96
2023-05-17T06:48:15.528Z,43.89
2023-05-17T06:50:42.269Z,43.75
2023-05-17T06:53:09.126Z,43.28
2023-05-17T06:55:35.964Z,43.43
2023-05-17T06:58:02.617Z,42.67
2023-05-17T07:00:32.455Z,42.28
2023-05-17T07:03:00.220Z,41.86
2023-05-17T07:05:29.035Z,41.48
2023-05-17T07:07:56.630Z,41.18
2023-05-17T07:10:23.177Z,40.59
2023-05-17T07:12:49.827Z,41.12
2023-05-17T07:15:18.435Z,40.30
2023-05-17T07:17:45.066Z,40.02
2023-05-17T07:20:12.737Z,39.59
2023-05-17T07:22:39.438Z,39.39
2023-05-17T07:25:06.763Z,38.63
2023-05-17T07:27:33.363Z,37.78
2023-05-17T07:30:01.064Z,37.95
2023-05-17T07:32:27.690Z,38.38
2023-05-17T07:34:54.527Z,37.51
2023-05-17T07:37:21.147Z,36.48
2023-05-17T07:39:47.834Z,36.73
2023-05-17T07:42:14.716Z,36.46
2023-05-17T07:44:42.582Z,36.03
2023-05-17T07:47:09.243Z,37.58
2023-05-17T07:49:35.873Z,36.17
2023-05-17T07:52:03.027Z,37.08
2023-05-17T07:54:30.900Z,36.92
2023-05-17T07:56:57.630Z,37.93
2023-05-17T07:59:24.634Z,37.70
2023-05-17T08:01:52.144Z,37.91
2023-05-17T08:04:21.734Z,37.92
2023-05-17T08:06:49.944Z,37.79
2023-05-17T08:09:16.862Z,37.87
2023-05-17T08:11:46.390Z,37.91
2023-05-17T08:14:16.668Z,36.96
2023-05-17T08:16:45.124Z,36.48
2023-05-17T08:19:13.371Z,37.18
2023-05-17T08:21:41.848Z,37.01
2023-05-17T08:24:08.962Z,37.44
2023-05-17T08:26:35.869Z,36.95
2023-05-17T08:33:34.927Z,36.91
2023-05-17T08:36:02.873Z,37.83
2023-05-17T08:38:29.413Z,37.84
2023-05-17T08:40:56.809Z,36.82
2023-05-17T08:43:26.020Z,35.26
2023-05-17T08:45:57.549Z,36.15
2023-05-17T08:48:31.070Z,37.22
2023-05-17T08:50:58.041Z,36.93
2023-05-17T08:53:25.524Z,37.29
2023-05-17T08:55:58.874Z,37.13
2023-05-17T08:58:32.584Z,35.29
2023-05-17T09:01:07.363Z,35.12
2023-05-17T09:03:35.650Z,35.92
2023-05-17T09:06:03.551Z,35.54
2023-05-17T09:08:32.849Z,36.22
2023-05-17T09:10:59.528Z,35.43
2023-05-17T09:13:26.727Z,36.28
2023-05-17T09:15:54.390Z,37.67
2023-05-17T09:18:32.654Z,36.01
2023-05-17T09:21:06.248Z,35.81
2023-05-17T09:23:33.849Z,35.72
2023-05-17T09:26:10.434Z,35.51
2023-05-17T09:28:39.490Z,36.43
2023-05-17T09:31:10.591Z,35.58
2023-05-17T09:33:48.138Z,36.46
2023-05-17T09:36:22.455Z,35.35
2023-05-17T09:38:58.589Z,35.43
2023-05-17T09:41:30.659Z,37.23
2023-05-17T09:44:02.250Z,36.78
2023-05-17T09:46:34.782Z,36.68
2023-05-17T09:49:03.275Z,37.42
2023-05-17T09:51:37.147Z,36.47
2023-05-17T09:54:03.958Z,36.38
2023-05-17T09:56:31.243Z,36.67
2023-05-17T09:59:01.155Z,36.15
2023-05-17T10:01:29.173Z,35.23
2023-05-17T10:03:59.172Z,35.22
2023-05-17T10:06:39.018Z,36.10
2023-05-17T10:09:14.303Z,35.99
2023-05-17T10:11:44.193Z,35.80
2023-05-17T10:14:22.788Z,35.75
2023-05-17T10:16:51.675Z,34.56
2023-05-17T10:19:20.833Z,34.75
2023-05-17T10:21:48.509Z,35.29
2023-05-17T10:24:16.383Z,34.09
2023-05-17T10:26:43.484Z,34.90
2023-05-17T10:29:10.810Z,34.05
2023-05-17T10:31:37.592Z,34.87
2023-05-17T10:34:06.600Z,35.70
2023-05-17T10:36:34.128Z,33.09
2023-05-17T10:39:01.888Z,33.35
2023-05-17T10:41:33.671Z,33.86
2023-05-17T10:44:03.140Z,32.81
2023-05-17T10:46:30.777Z,34.20
2023-05-17T10:49:01.438Z,33.87
2023-05-17T10:51:39.338Z,34.12
2023-05-17T10:54:18.399Z,31.03
2023-05-17T10:56:52.831Z,31.49
2023-05-17T10:59:28.104Z,33.64
2023-05-17T11:02:10.189Z,33.12
2023-05-17T11:04:39.835Z,33.28
2023-05-17T11:07:20.139Z,33.69
2023-05-17T11:09:50.610Z,32.95
2023-05-17T11:12:37.334Z,33.71
2023-05-17T11:15:08.453Z,33.31
2023-05-17T11:17:57.447Z,33.69
2023-05-17T11:20:24.187Z,32.22
2023-05-17T11:22:58.625Z,32.58
2023-05-17T11:25:29.862Z,33.57
2023-05-17T11:27:58.481Z,33.47
2023-05-17T11:30:26.751Z,34.23
2023-05-17T11:32:57.768Z,33.64
2023-05-17T11:35:28.131Z,33.04
2023-05-17T11:38:13.926Z,34.54
2023-05-17T11:40:41.129Z,32.76
2023-05-17T11:43:13.995Z,32.96
2023-05-17T11:45:46.374Z,31.36
2023-05-17T11:48:13.513Z,31.67
2023-05-17T11:50:42.422Z,31.97
2023-05-17T11:53:10.310Z,32.42
2023-05-17T11:55:41.949Z,32.55
2023-05-17T11:58:10.521Z,31.51
2023-05-17T12:00:41.934Z,32.82
2023-05-17T12:03:35.137Z,33.83
2023-05-17T12:06:09.413Z,31.94
2023-05-17T12:08:38.626Z,32.34
2023-05-17T12:11:06.710Z,31.23
2023-05-17T12:13:35.133Z,31.02
2023-05-17T12:16:05.880Z,31.29
2023-05-17T12:18:40.020Z,30.82
2023-05-17T12:21:08.978Z,31.50
2023-05-17T12:23:41.142Z,30.03
2023-05-17T12:26:12.721Z,30.78
2023-05-17T12:28:41.630Z,31.34
2023-05-17T12:31:12.002Z,30.42
2023-05-17T12:33:41.565Z,30.59
2023-05-17T12:36:11.049Z,30.70
2023-05-17T12:38:40.651Z,31.08
2023-05-17T12:41:10.511Z,32.24
2023-05-17T12:43:38.956Z,32.38
2023-05-17T12:46:07.749Z,32.54
2023-05-17T12:48:40.420Z,31.88
2023-05-17T12:51:12.297Z,32.59
2023-05-17T12:54:06.127Z,32.34
2023-05-17T12:56:32.885Z,31.97
2023-05-17T12:59:12.078Z,30.94
2023-05-17T13:01:49.838Z,30.87
2023-05-17T13:04:18.000Z,30.25
2023-05-17T13:06:54.603Z,31.19
2023-05-17T13:09:23.897Z,31.31
2023-05-17T13:11:51.056Z,30.81
2023-05-17T13:14:43.462Z,31.91
2023-05-17T13:17:15.395Z,32.07
2023-05-17T13:19:42.628Z,30.55
2023-05-17T13:22:10.077Z,31.01
2023-05-17T13:24:38.294Z,33.05
2023-05-17T13:27:06.023Z,31.83
2023-05-17T13:29:40.188Z,32.97
2023-05-17T13:32:08.688Z,31.85
2023-05-17T13:34:35.553Z,32.44
2023-05-17T13:37:02.241Z,31.85
2023-05-17T13:39:28.996Z,31.10
2023-05-17T13:41:55.682Z,31.24
2023-05-17T13:44:22.350Z,30.82
2023-05-17T13:46:49.023Z,30.47
2023-05-17T13:49:15.715Z,31.64
2023-05-17T13:51:42.857Z,30.03
2023-05-17T13:54:10.589Z,31.32
2023-05-17T13:56:37.581Z,30.03
2023-05-17T13:59:04.240Z,29.58
2023-05-17T14:01:30.935Z,30.18
2023-05-17T14:03:57.595Z,30.72
2023-05-17T14:06:24.510Z,29.08
2023-05-17T14:08:53.067Z,29.50
2023-05-17T14:11:19.850Z,31.50
2023-05-17T14:13:46.418Z,31.16
2023-05-17T14:16:14.277Z,31.65
2023-05-17T14:18:41.139Z,31.68
2023-05-17T14:21:08.211Z,30.83
2023-05-17T14:23:35.469Z,30.82
2023-05-17T14:26:05.006Z,29.91
2023-05-17T14:28:31.840Z,30.27
2023-05-17T14:30:58.545Z,32.16
2023-05-17T14:33:26.841Z,32.11
2023-05-17T14:35:53.673Z,30.58
2023-05-17T14:38:22.278Z,29.82
2023-05-17T14:40:49.022Z,29.81
2023-05-17T14:43:16.267Z,30.75
2023-05-17T14:45:42.867Z,31.13
2023-05-17T14:48:09.620Z,31.15
2023-05-17T14:50:36.368Z,31.42
2023-05-17T14:53:03.045Z,29.94
2023-05-17T14:55:30.101Z,30.35
2023-05-17T14:57:57.853Z,31.16
2023-05-17T15:00:25.290Z,30.94
2023-05-17T15:02:51.843Z,30.50
2023-05-17T15:05:18.613Z,30.66
2023-05-17T15:07:45.228Z,30.37
2023-05-17T15:10:12.963Z,30.07
2023-05-17T15:12:39.978Z,29.76
2023-05-17T15:15:07.154Z,30.26
2023-05-17T15:17:33.745Z,29.59
2023-05-17T15:20:00.532Z,29.97
2023-05-17T15:22:27.153Z,30.22
2023-05-17T15:24:54.298Z,30.42
2023-05-17T15:27:20.974Z,30.61
2023-05-17T15:29:47.566Z,30.78
2023-05-17T15:32:14.199Z,30.19
2023-05-17T15:34:41.297Z,30.29
2023-05-17T15:37:07.843Z,31.19
2023-05-17T15:39:34.546Z,31.26
2023-05-17T15:42:01.414Z,32.14
2023-05-17T15:44:27.970Z,31.06
2023-05-17T15:46:54.527Z,30.92
2023-05-17T15:49:21.235Z,30.52
2023-05-17T15:51:47.976Z,30.53
2023-05-17T15:54:14.939Z,31.16
2023-05-17T15:56:41.934Z,29.97
2023-05-17T15:59:08.666Z,30.31
2023-05-17T16:01:35.517Z,30.66
2023-05-17T16:04:02.292Z,29.10
2023-05-17T16:06:34.710Z,29.76
2023-05-17T16:09:02.932Z,30.04
2023-05-17T16:11:29.504Z,30.38
2023-05-17T16:13:57.106Z,29.31
2023-05-17T16:16:23.845Z,31.39
2023-05-17T16:18:50.703Z,30.20
2023-05-17T16:21:17.334Z,30.10
2023-05-17T16:23:43.953Z,28.42
2023-05-17T16:26:10.730Z,28.72
2023-05-17T16:28:37.377Z,28.13
2023-05-17T16:31:05.526Z,28.48
2023-05-17T16:33:32.261Z,28.16
2023-05-17T16:35:59.254Z,29.75
2023-05-17T16:38:26.188Z,28.16
2023-05-17T16:40:52.770Z,28.56
2023-05-17T16:43:19.402Z,28.27
2023-05-17T16:45:46.324Z,28.71
2023-05-17T16:48:14.405Z,29.24
2023-05-17T16:50:41.982Z,29.87
2023-05-17T16:53:08.629Z,29.05
2023-05-17T16:55:36.223Z,29.14
2023-05-17T16:58:03.139Z,30.24
2023-05-17T17:00:29.991Z,30.03
2023-05-17T17:02:58.890Z,29.86
2023-05-17T17:05:26.507Z,29.13
2023-05-17T17:07:53.618Z,29.36
2023-05-17T17:10:20.934Z,29.19
2023-05-17T17:12:49.682Z,28.82
2023-05-17T17:15:16.675Z,29.23
2023-05-17T17:17:44.937Z,29.40
2023-05-17T17:20:12.235Z,30.13
2023-05-17T17:22:39.086Z,30.80
2023-05-17T17:25:07.385Z,30.75
2023-05-17T17:27:34.761Z,30.01
2023-05-17T17:30:01.938Z,29.22
2023-05-17T17:32:28.657Z,29.56
2023-05-17T17:34:55.284Z,30.02
2023-05-17T17:37:21.900Z,30.11
2023-05-17T17:39:48.431Z,29.76
2023-05-17T17:42:15.014Z,30.63
2023-05-17T17:44:41.558Z,31.94
2023-05-17T17:47:08.194Z,30.17
2023-05-17T17:49:35.984Z,31.37
2023-05-17T17:52:03.450Z,30.14
2023-05-17T17:54:30.050Z,31.70
2023-05-17T17:56:56.642Z,30.12
2023-05-17T17:59:23.241Z,30.48
2023-05-17T18:01:49.989Z,30.19
2023-05-17T18:04:16.721Z,30.42
2023-05-17T18:06:45.621Z,30.42
2023-05-17T18:09:12.178Z,30.98
2023-05-17T18:11:38.791Z,31.55
2023-05-17T18:14:06.148Z,31.23
2023-05-17T18:16:33.006Z,30.53
2023-05-17T18:19:00.680Z,31.20
2023-05-17T18:21:29.220Z,31.91
2023-05-17T18:23:55.879Z,31.37
2023-05-17T18:26:23.153Z,30.89
2023-05-17T18:28:50.252Z,30.86
2023-05-17T18:31:18.264Z,30.56
2023-05-17T18:33:45.306Z,30.31
2023-05-17T18:36:12.002Z,30.39
2023-05-17T18:38:38.569Z,31.42
2023-05-17T18:41:05.267Z,30.89
2023-05-17T18:43:31.889Z,30.49
2023-05-17T18:45:58.483Z,30.71
2023-05-17T18:48:25.176Z,31.16
2023-05-17T18:50:51.908Z,31.69
2023-05-17T18:53:18.506Z,31.70
2023-05-17T18:55:45.196Z,32.15
2023-05-17T18:58:11.714Z,31.82
2023-05-17T19:00:38.347Z,32.08
2023-05-17T19:03:05.049Z,32.00
2023-05-17T19:05:31.707Z,32.16
2023-05-17T19:07:58.363Z,32.93
2023-05-17T19:10:24.959Z,32.03
2023-05-17T19:12:51.598Z,32.98
2023-05-17T19:15:19.513Z,32.79
2023-05-17T19:17:46.124Z,33.31
2023-05-17T19:20:13.050Z,32.58
2023-05-17T19:22:39.633Z,33.29
2023-05-17T19:25:06.809Z,33.59
2023-05-17T19:27:33.409Z,33.78
2023-05-17T19:29:59.988Z,34.07
2023-05-17T19:32:26.909Z,34.47
2023-05-17T19:34:54.764Z,34.14
2023-05-17T19:37:21.348Z,34.18
2023-05-17T19:39:47.891Z,34.69
2023-05-17T19:42:14.472Z,34.48
2023-05-17T19:44:41.113Z,34.42
2023-05-17T19:47:07.671Z,34.73
2023-05-17T19:49:34.245Z,34.37
2023-05-17T19:52:01.133Z,35.00
2023-05-17T19:54:29.184Z,35.83
2023-05-17T19:56:56.967Z,35.36
2023-05-17T19:59:23.769Z,35.87
2023-05-17T20:01:50.827Z,35.94
2023-05-17T20:04:17.538Z,35.52
2023-05-17T20:06:44.494Z,35.68
2023-05-17T20:09:11.164Z,36.32
2023-05-17T20:11:37.991Z,35.96
2023-05-17T20:14:04.662Z,35.86
2023-05-17T20:16:31.383Z,35.59
2023-05-17T20:18:58.331Z,35.74
2023-05-17T20:21:26.164Z,36.17
2023-05-17T20:24:00.457Z,36.11
2023-05-17T20:26:31.334Z,36.09
2023-05-17T20:28:58.888Z,36.19
2023-05-17T20:31:25.641Z,35.80
2023-05-17T20:33:52.862Z,35.65
2023-05-17T20:36:19.476Z,35.82
2023-05-17T20:38:46.364Z,36.13
2023-05-17T20:41:14.678Z,36.05
2023-05-17T20:43:46.598Z,35.52
2023-05-17T20:46:13.581Z,35.38
2023-05-17T20:48:43.089Z,35.48
2023-05-17T20:51:10.239Z,35.27
2023-05-17T20:53:37.335Z,35.76
2023-05-17T20:56:04.447Z,36.34
2023-05-17T20:58:31.375Z,36.74
2023-05-17T21:00:58.613Z,36.68
2023-05-17T21:03:28.140Z,36.01
2023-05-17T21:05:55.604Z,37.01
2023-05-17T21:08:22.691Z,37.22
2023-05-17T21:10:49.865Z,36.70
2023-05-17T21:13:16.534Z,37.72
2023-05-17T21:15:43.525Z,37.41
2023-05-17T21:18:11.181Z,36.65
2023-05-17T21:20:38.589Z,37.36
2023-05-17T21:23:05.230Z,37.28
2023-05-17T21:25:32.160Z,37.04
2023-05-17T21:27:58.849Z,36.89
2023-05-17T21:30:25.798Z,36.83
2023-05-17T21:32:52.363Z,36.85
2023-05-17T21:35:18.974Z,36.90
2023-05-17T21:37:45.547Z,37.21
2023-05-17T21:40:12.274Z,37.20
2023-05-17T21:42:38.903Z,37.02
2023-05-17T21:45:06.190Z,37.46
2023-05-17T21:47:32.860Z,36.81
2023-05-17T21:49:59.515Z,37.66
2023-05-17T21:52:26.137Z,37.44
2023-05-17T21:54:52.764Z,37.72
2023-05-17T21:57:20.926Z,37.03
2023-05-17T21:59:48.971Z,37.45
2023-05-17T22:02:15.732Z,37.27
2023-05-17T22:04:42.433Z,37.54
2023-05-17T22:07:10.862Z,37.99
2023-05-17T22:09:38.042Z,37.40
2023-05-17T22:12:08.256Z,37.13
2023-05-17T22:14:36.271Z,37.09
2023-05-17T22:17:08.265Z,36.72
2023-05-17T22:19:40.535Z,36.97
2023-05-17T22:22:08.460Z,36.84
2023-05-17T22:24:35.383Z,36.39
2023-05-17T22:27:02.594Z,37.29
2023-05-17T22:29:29.346Z,37.13
2023-05-17T22:31:56.053Z,37.50
2023-05-17T22:34:22.895Z,36.75
2023-05-17T22:36:49.457Z,37.01
2023-05-17T22:39:16.080Z,36.85
2023-05-17T22:41:42.690Z,37.28
2023-05-17T22:44:09.307Z,36.63
2023-05-17T22:46:37.856Z,36.86
2023-05-17T22:49:04.452Z,37.03
2023-05-17T22:51:34.973Z,36.74
2023-05-17T22:54:03.213Z,37.13
2023-05-17T22:56:30.094Z,37.27
2023-05-17T22:58:56.756Z,37.65
2023-05-17T23:01:23.384Z,38.20
2023-05-17T23:03:50.085Z,37.98
2023-05-17T23:06:16.662Z,37.23
2023-05-17T23:08:43.281Z,37.85
2023-05-17T23:11:09.837Z,37.60
2023-05-17T23:13:36.403Z,37.59
2023-05-17T23:16:04.125Z,37.91
2023-05-17T23:18:30.993Z,38.50
2023-05-17T23:20:58.874Z,38.27
2023-05-17T23:23:25.936Z,38.29
2023-05-17T23:25:52.518Z,38.07
2023-05-17T23:28:19.302Z,38.04
2023-05-17T23:30:48.497Z,38.26
2023-05-17T23:33:15.438Z,38.25
2023-05-17T23:35:42.032Z,38.42
2023-05-17T23:38:08.670Z,38.87
2023-05-17T23:40:36.951Z,38.45
2023-05-17T23:43:04.205Z,38.76
2023-05-17T23:45:30.989Z,38.16
2023-05-17T23:48:01.008Z,38.24
2023-05-17T23:50:27.746Z,38.38
2023-05-17T23:52:54.355Z,38.63
2023-05-17T23:55:22.511Z,38.38
2023-05-17T23:57:49.360Z,37.92
